sensor_id;sensor_type;location;lat;lon;timestamp;temperature;humidity
18225;DHT22;9237;48.590;8.854;2023-01-25T00:01:54;1.50;99.90
18225;DHT22;9237;48.590;8.854;2023-01-25T00:04:22;1.50;99.90
18225;DHT22;9237;48.590;8.854;2023-01-25T00:06:49;1.50;99.90
18225;DHT22;9237;48.590;8.854;2023-01-25T00:09:17;1.50;99.90
18225;DHT22;9237;48.590;8.854;2023-01-25T00:11:46;1.50;99.90
18225;DHT22;9237;48.590;8.854;2023-01-25T00:14:14;1.50;99.90
18225;DHT22;9237;48.590;8.854;2023-01-25T00:16:41;1.50;99.90
18225;DHT22;9237;48.590;8.854;2023-01-25T00:19:09;1.50;99.90
18225;DHT22;9237;48.590;8.854;2023-01-25T00:21:36;1.50;99.90
18225;DHT22;9237;48.590;8.854;2023-01-25T00:24:04;1.50;99.90
18225;DHT22;9237;48.590;8.854;2023-01-25T00:26:32;1.50;99.90
18225;DHT22;9237;48.590;8.854;2023-01-25T00:29:00;1.50;99.90
18225;DHT22;9237;48.590;8.854;2023-01-25T00:31:35;1.50;99.90
18225;DHT22;9237;48.590;8.854;2023-01-25T00:34:09;1.50;99.90
18225;DHT22;9237;48.590;8.854;2023-01-25T00:36:55;1.50;99.90
18225;DHT22;9237;48.590;8.854;2023-01-25T00:39:24;1.50;99.90
18225;DHT22;9237;48.590;8.854;2023-01-25T00:41:51;1.50;99.90
18225;DHT22;9237;48.590;8.854;2023-01-25T00:44:19;1.50;99.90
18225;DHT22;9237;48.590;8.854;2023-01-25T00:46:46;1.50;99.90
18225;DHT22;9237;48.590;8.854;2023-01-25T00:49:17;1.50;99.90
18225;DHT22;9237;48.590;8.854;2023-01-25T00:51:44;1.50;99.90
18225;DHT22;9237;48.590;8.854;2023-01-25T00:54:11;1.50;99.90
18225;DHT22;9237;48.590;8.854;2023-01-25T00:56:38;1.50;99.90
18225;DHT22;9237;48.590;8.854;2023-01-25T00:59:05;1.50;99.90
18225;DHT22;9237;48.590;8.854;2023-01-25T01:01:34;1.50;99.90
18225;DHT22;9237;48.590;8.854;2023-01-25T01:04:01;1.50;99.90
18225;DHT22;9237;48.590;8.854;2023-01-25T01:06:28;1.50;99.90
18225;DHT22;9237;48.590;8.854;2023-01-25T01:08:55;1.50;99.90
18225;DHT22;9237;48.590;8.854;2023-01-25T01:11:22;1.60;99.90
18225;DHT22;9237;48.590;8.854;2023-01-25T01:13:48;1.60;99.90
18225;DHT22;9237;48.590;8.854;2023-01-25T01:16:15;1.50;99.90
18225;DHT22;9237;48.590;8.854;2023-01-25T01:18:45;1.50;99.90
18225;DHT22;9237;48.590;8.854;2023-01-25T01:21:12;1.50;99.90
18225;DHT22;9237;48.590;8.854;2023-01-25T01:23:39;1.50;99.90
18225;DHT22;9237;48.590;8.854;2023-01-25T01:26:08;1.50;99.90
18225;DHT22;9237;48.590;8.854;2023-01-25T01:28:35;1.60;99.90
18225;DHT22;9237;48.590;8.854;2023-01-25T01:31:05;1.60;99.90
18225;DHT22;9237;48.590;8.854;2023-01-25T01:33:32;1.60;99.90
18225;DHT22;9237;48.590;8.854;2023-01-25T01:36:05;1.60;99.90
18225;DHT22;9237;48.590;8.854;2023-01-25T01:38:32;1.50;99.90
18225;DHT22;9237;48.590;8.854;2023-01-25T01:40:59;1.60;99.90
18225;DHT22;9237;48.590;8.854;2023-01-25T01:43:26;1.60;99.90
18225;DHT22;9237;48.590;8.854;2023-01-25T01:45:57;1.60;99.90
18225;DHT22;9237;48.590;8.854;2023-01-25T01:48:31;1.60;99.90
18225;DHT22;9237;48.590;8.854;2023-01-25T01:51:02;1.60;99.90
18225;DHT22;9237;48.590;8.854;2023-01-25T01:53:35;1.60;99.90
18225;DHT22;9237;48.590;8.854;2023-01-25T01:56:05;1.60;99.90
18225;DHT22;9237;48.590;8.854;2023-01-25T01:58:33;1.60;99.90
18225;DHT22;9237;48.590;8.854;2023-01-25T02:01:00;1.60;99.90
18225;DHT22;9237;48.590;8.854;2023-01-25T02:03:28;1.60;99.90
18225;DHT22;9237;48.590;8.854;2023-01-25T02:06:01;1.60;99.90
18225;DHT22;9237;48.590;8.854;2023-01-25T02:08:32;1.60;99.90
18225;DHT22;9237;48.590;8.854;2023-01-25T02:11:01;1.60;99.90
18225;DHT22;9237;48.590;8.854;2023-01-25T02:13:30;1.50;99.90
18225;DHT22;9237;48.590;8.854;2023-01-25T02:15:57;1.60;99.90
18225;DHT22;9237;48.590;8.854;2023-01-25T02:18:24;1.60;99.90
18225;DHT22;9237;48.590;8.854;2023-01-25T02:20:53;1.60;99.90
18225;DHT22;9237;48.590;8.854;2023-01-25T02:23:24;1.60;99.90
18225;DHT22;9237;48.590;8.854;2023-01-25T02:25:54;1.50;99.90
18225;DHT22;9237;48.590;8.854;2023-01-25T02:28:25;1.50;99.90
18225;DHT22;9237;48.590;8.854;2023-01-25T02:30:53;1.60;99.90
18225;DHT22;9237;48.590;8.854;2023-01-25T02:33:21;1.60;99.90
18225;DHT22;9237;48.590;8.854;2023-01-25T02:35:51;1.60;99.90
18225;DHT22;9237;48.590;8.854;2023-01-25T02:38:20;1.60;99.90
18225;DHT22;9237;48.590;8.854;2023-01-25T02:40:51;1.60;99.90
18225;DHT22;9237;48.590;8.854;2023-01-25T02:43:22;1.60;99.90
18225;DHT22;9237;48.590;8.854;2023-01-25T02:45:55;1.60;99.90
18225;DHT22;9237;48.590;8.854;2023-01-25T02:48:24;1.60;99.90
18225;DHT22;9237;48.590;8.854;2023-01-25T02:50:50;1.60;99.90
18225;DHT22;9237;48.590;8.854;2023-01-25T02:53:17;1.60;99.90
18225;DHT22;9237;48.590;8.854;2023-01-25T02:55:44;1.60;99.90
18225;DHT22;9237;48.590;8.854;2023-01-25T02:58:11;1.60;99.90
18225;DHT22;9237;48.590;8.854;2023-01-25T03:00:39;1.60;99.90
18225;DHT22;9237;48.590;8.854;2023-01-25T03:03:06;1.60;99.90
18225;DHT22;9237;48.590;8.854;2023-01-25T03:05:33;1.70;99.90
18225;DHT22;9237;48.590;8.854;2023-01-25T03:08:00;1.70;99.90
18225;DHT22;9237;48.590;8.854;2023-01-25T03:10:26;1.70;99.90
18225;DHT22;9237;48.590;8.854;2023-01-25T03:12:53;1.60;99.90
18225;DHT22;9237;48.590;8.854;2023-01-25T03:15:20;1.60;99.90
18225;DHT22;9237;48.590;8.854;2023-01-25T03:17:48;1.60;99.90
18225;DHT22;9237;48.590;8.854;2023-01-25T03:20:15;1.60;99.90
18225;DHT22;9237;48.590;8.854;2023-01-25T03:22:42;1.60;99.90
18225;DHT22;9237;48.590;8.854;2023-01-25T03:25:09;1.50;99.90
18225;DHT22;9237;48.590;8.854;2023-01-25T03:27:36;1.60;99.90
18225;DHT22;9237;48.590;8.854;2023-01-25T03:30:03;1.60;99.90
18225;DHT22;9237;48.590;8.854;2023-01-25T03:32:30;1.60;99.90
18225;DHT22;9237;48.590;8.854;2023-01-25T03:34:58;1.60;99.90
18225;DHT22;9237;48.590;8.854;2023-01-25T03:37:25;1.60;99.90
18225;DHT22;9237;48.590;8.854;2023-01-25T03:39:54;1.60;99.90
18225;DHT22;9237;48.590;8.854;2023-01-25T03:42:22;1.60;99.90
18225;DHT22;9237;48.590;8.854;2023-01-25T03:44:49;1.60;99.90
18225;DHT22;9237;48.590;8.854;2023-01-25T03:47:16;1.60;99.90
18225;DHT22;9237;48.590;8.854;2023-01-25T03:49:42;1.70;99.90
18225;DHT22;9237;48.590;8.854;2023-01-25T03:52:11;1.60;99.90
18225;DHT22;9237;48.590;8.854;2023-01-25T03:54:38;1.70;99.90
18225;DHT22;9237;48.590;8.854;2023-01-25T03:57:04;1.70;99.90
18225;DHT22;9237;48.590;8.854;2023-01-25T03:59:31;1.70;99.90
18225;DHT22;9237;48.590;8.854;2023-01-25T04:01:58;1.70;99.90
18225;DHT22;9237;48.590;8.854;2023-01-25T04:04:25;1.70;99.90
18225;DHT22;9237;48.590;8.854;2023-01-25T04:06:52;1.70;99.90
18225;DHT22;9237;48.590;8.854;2023-01-25T04:09:20;1.70;99.90
18225;DHT22;9237;48.590;8.854;2023-01-25T04:11:48;1.70;99.90
18225;DHT22;9237;48.590;8.854;2023-01-25T04:14:15;1.90;99.90
18225;DHT22;9237;48.590;8.854;2023-01-25T04:16:42;1.70;99.90
18225;DHT22;9237;48.590;8.854;2023-01-25T04:19:09;1.70;99.90
18225;DHT22;9237;48.590;8.854;2023-01-25T04:21:36;1.70;99.90
18225;DHT22;9237;48.590;8.854;2023-01-25T04:24:03;1.70;99.90
18225;DHT22;9237;48.590;8.854;2023-01-25T04:26:31;1.70;99.90
18225;DHT22;9237;48.590;8.854;2023-01-25T04:28:59;1.70;99.90
18225;DHT22;9237;48.590;8.854;2023-01-25T04:31:26;1.70;99.90
18225;DHT22;9237;48.590;8.854;2023-01-25T04:33:54;1.70;99.90
18225;DHT22;9237;48.590;8.854;2023-01-25T04:36:21;1.70;99.90
18225;DHT22;9237;48.590;8.854;2023-01-25T04:38:53;1.70;99.90
18225;DHT22;9237;48.590;8.854;2023-01-25T04:41:20;1.70;99.90
18225;DHT22;9237;48.590;8.854;2023-01-25T04:43:52;1.70;99.90
18225;DHT22;9237;48.590;8.854;2023-01-25T04:46:19;1.70;99.90
18225;DHT22;9237;48.590;8.854;2023-01-25T04:48:46;1.70;99.90
18225;DHT22;9237;48.590;8.854;2023-01-25T04:51:13;1.80;99.90
18225;DHT22;9237;48.590;8.854;2023-01-25T04:53:39;1.70;99.90
18225;DHT22;9237;48.590;8.854;2023-01-25T04:56:06;1.70;99.90
18225;DHT22;9237;48.590;8.854;2023-01-25T04:58:33;1.70;99.90
18225;DHT22;9237;48.590;8.854;2023-01-25T05:01:02;1.80;99.90
18225;DHT22;9237;48.590;8.854;2023-01-25T05:03:29;1.80;99.90
18225;DHT22;9237;48.590;8.854;2023-01-25T05:05:56;1.80;99.90
18225;DHT22;9237;48.590;8.854;2023-01-25T05:08:23;1.80;99.90
18225;DHT22;9237;48.590;8.854;2023-01-25T05:10:50;1.80;99.90
18225;DHT22;9237;48.590;8.854;2023-01-25T05:13:17;1.80;99.90
18225;DHT22;9237;48.590;8.854;2023-01-25T05:15:44;1.80;99.90
18225;DHT22;9237;48.590;8.854;2023-01-25T05:18:12;1.80;99.90
18225;DHT22;9237;48.590;8.854;2023-01-25T05:20:39;1.80;99.90
18225;DHT22;9237;48.590;8.854;2023-01-25T05:23:06;1.80;99.90
18225;DHT22;9237;48.590;8.854;2023-01-25T05:25:33;1.80;99.90
18225;DHT22;9237;48.590;8.854;2023-01-25T05:28:17;1.80;99.90
18225;DHT22;9237;48.590;8.854;2023-01-25T05:30:44;1.80;99.90
18225;DHT22;9237;48.590;8.854;2023-01-25T05:33:12;1.80;99.90
18225;DHT22;9237;48.590;8.854;2023-01-25T05:35:39;1.80;99.90
18225;DHT22;9237;48.590;8.854;2023-01-25T05:38:07;1.80;99.90
18225;DHT22;9237;48.590;8.854;2023-01-25T05:40:34;1.80;99.90
18225;DHT22;9237;48.590;8.854;2023-01-25T05:43:01;1.80;99.90
18225;DHT22;9237;48.590;8.854;2023-01-25T05:45:28;1.80;99.90
18225;DHT22;9237;48.590;8.854;2023-01-25T05:47:56;1.80;99.90
18225;DHT22;9237;48.590;8.854;2023-01-25T05:50:26;1.80;99.90
18225;DHT22;9237;48.590;8.854;2023-01-25T05:52:53;1.80;99.90
18225;DHT22;9237;48.590;8.854;2023-01-25T05:55:20;1.80;99.90
18225;DHT22;9237;48.590;8.854;2023-01-25T05:57:46;1.80;99.90
18225;DHT22;9237;48.590;8.854;2023-01-25T06:00:14;1.80;99.90
18225;DHT22;9237;48.590;8.854;2023-01-25T06:02:41;1.80;99.90
18225;DHT22;9237;48.590;8.854;2023-01-25T06:05:08;1.80;99.90
18225;DHT22;9237;48.590;8.854;2023-01-25T06:07:36;1.80;99.90
18225;DHT22;9237;48.590;8.854;2023-01-25T06:10:04;1.80;99.90
18225;DHT22;9237;48.590;8.854;2023-01-25T06:12:32;1.80;99.90
18225;DHT22;9237;48.590;8.854;2023-01-25T06:14:59;1.80;99.90
18225;DHT22;9237;48.590;8.854;2023-01-25T06:17:26;1.80;99.90
18225;DHT22;9237;48.590;8.854;2023-01-25T06:19:53;1.80;99.90
18225;DHT22;9237;48.590;8.854;2023-01-25T06:22:19;1.80;99.90
18225;DHT22;9237;48.590;8.854;2023-01-25T06:24:48;1.80;99.90
18225;DHT22;9237;48.590;8.854;2023-01-25T06:27:14;1.80;99.90
18225;DHT22;9237;48.590;8.854;2023-01-25T06:29:41;1.80;99.90
18225;DHT22;9237;48.590;8.854;2023-01-25T06:32:08;1.90;99.90
18225;DHT22;9237;48.590;8.854;2023-01-25T06:34:35;1.90;99.90
18225;DHT22;9237;48.590;8.854;2023-01-25T06:37:01;1.80;99.90
18225;DHT22;9237;48.590;8.854;2023-01-25T06:39:28;1.80;99.90
18225;DHT22;9237;48.590;8.854;2023-01-25T06:41:56;1.80;99.90
18225;DHT22;9237;48.590;8.854;2023-01-25T06:44:23;1.80;99.90
18225;DHT22;9237;48.590;8.854;2023-01-25T06:46:50;1.80;99.90
18225;DHT22;9237;48.590;8.854;2023-01-25T06:49:17;1.80;99.90
18225;DHT22;9237;48.590;8.854;2023-01-25T06:51:43;1.80;99.90
18225;DHT22;9237;48.590;8.854;2023-01-25T06:54:10;1.80;99.90
18225;DHT22;9237;48.590;8.854;2023-01-25T06:56:37;1.90;99.90
18225;DHT22;9237;48.590;8.854;2023-01-25T06:59:05;1.90;99.90
18225;DHT22;9237;48.590;8.854;2023-01-25T07:01:32;1.90;99.90
18225;DHT22;9237;48.590;8.854;2023-01-25T07:03:59;1.80;99.90
18225;DHT22;9237;48.590;8.854;2023-01-25T07:06:30;1.90;99.90
18225;DHT22;9237;48.590;8.854;2023-01-25T07:09:01;1.80;99.90
18225;DHT22;9237;48.590;8.854;2023-01-25T07:11:28;1.80;99.90
18225;DHT22;9237;48.590;8.854;2023-01-25T07:13:55;1.80;99.90
18225;DHT22;9237;48.590;8.854;2023-01-25T07:16:23;1.80;99.90
18225;DHT22;9237;48.590;8.854;2023-01-25T07:18:50;1.80;99.90
18225;DHT22;9237;48.590;8.854;2023-01-25T07:21:18;1.80;99.90
18225;DHT22;9237;48.590;8.854;2023-01-25T07:23:46;1.80;99.90
18225;DHT22;9237;48.590;8.854;2023-01-25T07:26:14;1.90;99.90
18225;DHT22;9237;48.590;8.854;2023-01-25T07:28:42;1.80;99.90
18225;DHT22;9237;48.590;8.854;2023-01-25T07:31:09;1.90;99.90
18225;DHT22;9237;48.590;8.854;2023-01-25T07:33:37;1.80;99.90
18225;DHT22;9237;48.590;8.854;2023-01-25T07:36:06;1.80;99.90
18225;DHT22;9237;48.590;8.854;2023-01-25T07:38:33;1.80;99.90
18225;DHT22;9237;48.590;8.854;2023-01-25T07:41:00;1.80;99.90
18225;DHT22;9237;48.590;8.854;2023-01-25T07:43:28;1.80;99.90
18225;DHT22;9237;48.590;8.854;2023-01-25T07:45:59;1.80;99.90
18225;DHT22;9237;48.590;8.854;2023-01-25T07:48:26;1.80;99.90
18225;DHT22;9237;48.590;8.854;2023-01-25T07:50:57;1.80;99.90
18225;DHT22;9237;48.590;8.854;2023-01-25T07:53:37;1.80;99.90
18225;DHT22;9237;48.590;8.854;2023-01-25T07:56:04;1.80;99.90
18225;DHT22;9237;48.590;8.854;2023-01-25T07:58:31;1.80;99.90
18225;DHT22;9237;48.590;8.854;2023-01-25T08:01:05;1.80;99.90
18225;DHT22;9237;48.590;8.854;2023-01-25T08:03:31;1.80;99.90
18225;DHT22;9237;48.590;8.854;2023-01-25T08:06:00;1.80;99.90
18225;DHT22;9237;48.590;8.854;2023-01-25T08:08:30;1.80;99.90
18225;DHT22;9237;48.590;8.854;2023-01-25T08:10:58;1.90;99.90
18225;DHT22;9237;48.590;8.854;2023-01-25T08:13:25;1.90;99.90
18225;DHT22;9237;48.590;8.854;2023-01-25T08:15:53;1.80;99.90
18225;DHT22;9237;48.590;8.854;2023-01-25T08:18:20;1.80;99.90
18225;DHT22;9237;48.590;8.854;2023-01-25T08:20:47;1.80;99.90
18225;DHT22;9237;48.590;8.854;2023-01-25T08:23:15;1.80;99.90
18225;DHT22;9237;48.590;8.854;2023-01-25T08:25:42;1.90;99.90
18225;DHT22;9237;48.590;8.854;2023-01-25T08:28:09;1.80;99.90
18225;DHT22;9237;48.590;8.854;2023-01-25T08:30:35;1.80;99.90
18225;DHT22;9237;48.590;8.854;2023-01-25T08:33:02;1.90;99.90
18225;DHT22;9237;48.590;8.854;2023-01-25T08:35:29;1.80;99.90
18225;DHT22;9237;48.590;8.854;2023-01-25T08:37:56;1.80;99.90
18225;DHT22;9237;48.590;8.854;2023-01-25T08:40:24;2.30;99.90
18225;DHT22;9237;48.590;8.854;2023-01-25T08:42:51;1.90;99.90
18225;DHT22;9237;48.590;8.854;2023-01-25T08:45:18;1.90;99.90
18225;DHT22;9237;48.590;8.854;2023-01-25T08:47:45;1.80;99.90
18225;DHT22;9237;48.590;8.854;2023-01-25T08:50:11;1.80;99.90
18225;DHT22;9237;48.590;8.854;2023-01-25T08:52:39;1.90;99.90
18225;DHT22;9237;48.590;8.854;2023-01-25T08:55:06;1.80;99.90
18225;DHT22;9237;48.590;8.854;2023-01-25T08:57:34;1.70;99.90
18225;DHT22;9237;48.590;8.854;2023-01-25T09:00:02;1.80;99.90
18225;DHT22;9237;48.590;8.854;2023-01-25T09:02:30;1.80;99.90
18225;DHT22;9237;48.590;8.854;2023-01-25T09:04:56;1.70;99.90
18225;DHT22;9237;48.590;8.854;2023-01-25T09:07:23;1.70;99.90
18225;DHT22;9237;48.590;8.854;2023-01-25T09:09:50;1.70;99.90
18225;DHT22;9237;48.590;8.854;2023-01-25T09:12:17;1.70;99.90
18225;DHT22;9237;48.590;8.854;2023-01-25T09:14:45;1.70;99.90
18225;DHT22;9237;48.590;8.854;2023-01-25T09:17:11;1.70;99.90
18225;DHT22;9237;48.590;8.854;2023-01-25T09:19:38;1.70;99.90
18225;DHT22;9237;48.590;8.854;2023-01-25T09:22:06;1.70;99.90
18225;DHT22;9237;48.590;8.854;2023-01-25T09:24:33;1.80;99.90
18225;DHT22;9237;48.590;8.854;2023-01-25T09:27:00;1.80;99.90
18225;DHT22;9237;48.590;8.854;2023-01-25T09:29:27;1.80;99.90
18225;DHT22;9237;48.590;8.854;2023-01-25T09:31:55;1.90;99.90
18225;DHT22;9237;48.590;8.854;2023-01-25T09:34:22;1.80;99.90
18225;DHT22;9237;48.590;8.854;2023-01-25T09:36:49;1.90;99.90
18225;DHT22;9237;48.590;8.854;2023-01-25T09:39:15;2.00;99.90
18225;DHT22;9237;48.590;8.854;2023-01-25T09:42:15;2.00;99.90
18225;DHT22;9237;48.590;8.854;2023-01-25T09:44:59;1.90;99.90
18225;DHT22;9237;48.590;8.854;2023-01-25T09:47:36;1.80;99.90
18225;DHT22;9237;48.590;8.854;2023-01-25T09:50:15;1.90;99.90
18225;DHT22;9237;48.590;8.854;2023-01-25T09:55:41;1.90;99.90
18225;DHT22;9237;48.590;8.854;2023-01-25T09:58:13;1.90;99.90
18225;DHT22;9237;48.590;8.854;2023-01-25T10:00:43;2.00;99.90
18225;DHT22;9237;48.590;8.854;2023-01-25T10:03:20;2.10;99.90
18225;DHT22;9237;48.590;8.854;2023-01-25T10:05:50;1.90;99.90
18225;DHT22;9237;48.590;8.854;2023-01-25T10:08:23;1.90;99.90
18225;DHT22;9237;48.590;8.854;2023-01-25T10:10:57;1.90;99.90
18225;DHT22;9237;48.590;8.854;2023-01-25T10:13:26;1.80;99.90
18225;DHT22;9237;48.590;8.854;2023-01-25T10:16:00;1.80;99.90
18225;DHT22;9237;48.590;8.854;2023-01-25T10:18:32;1.80;99.90
18225;DHT22;9237;48.590;8.854;2023-01-25T10:21:02;1.80;99.90
18225;DHT22;9237;48.590;8.854;2023-01-25T10:23:46;1.80;99.90
18225;DHT22;9237;48.590;8.854;2023-01-25T10:26:21;1.80;99.90
18225;DHT22;9237;48.590;8.854;2023-01-25T10:28:55;1.90;99.90
18225;DHT22;9237;48.590;8.854;2023-01-25T10:31:31;1.90;99.90
18225;DHT22;9237;48.590;8.854;2023-01-25T10:34:01;1.90;99.90
18225;DHT22;9237;48.590;8.854;2023-01-25T10:36:37;2.00;99.90
18225;DHT22;9237;48.590;8.854;2023-01-25T10:39:04;2.10;99.90
18225;DHT22;9237;48.590;8.854;2023-01-25T10:41:37;2.00;99.90
18225;DHT22;9237;48.590;8.854;2023-01-25T10:44:05;2.00;99.90
18225;DHT22;9237;48.590;8.854;2023-01-25T10:46:57;2.00;99.90
18225;DHT22;9237;48.590;8.854;2023-01-25T10:49:34;2.10;99.90
18225;DHT22;9237;48.590;8.854;2023-01-25T10:52:14;2.20;99.90
18225;DHT22;9237;48.590;8.854;2023-01-25T10:54:41;2.10;99.90
18225;DHT22;9237;48.590;8.854;2023-01-25T10:57:13;2.00;99.90
18225;DHT22;9237;48.590;8.854;2023-01-25T10:59:43;2.10;99.90
18225;DHT22;9237;48.590;8.854;2023-01-25T11:02:37;2.10;99.90
18225;DHT22;9237;48.590;8.854;2023-01-25T11:05:26;2.00;99.90
18225;DHT22;9237;48.590;8.854;2023-01-25T11:07:53;2.10;99.90
18225;DHT22;9237;48.590;8.854;2023-01-25T11:10:31;2.00;99.90
18225;DHT22;9237;48.590;8.854;2023-01-25T11:13:19;2.00;99.90
18225;DHT22;9237;48.590;8.854;2023-01-25T11:15:49;2.00;99.90
18225;DHT22;9237;48.590;8.854;2023-01-25T11:18:19;2.10;99.90
18225;DHT22;9237;48.590;8.854;2023-01-25T11:21:03;2.10;99.90
18225;DHT22;9237;48.590;8.854;2023-01-25T11:23:30;2.20;99.90
18225;DHT22;9237;48.590;8.854;2023-01-25T11:26:11;2.10;99.90
18225;DHT22;9237;48.590;8.854;2023-01-25T11:28:38;2.10;99.90
18225;DHT22;9237;48.590;8.854;2023-01-25T11:31:09;2.00;99.90
18225;DHT22;9237;48.590;8.854;2023-01-25T11:33:37;2.00;99.90
18225;DHT22;9237;48.590;8.854;2023-01-25T11:36:21;1.90;99.90
18225;DHT22;9237;48.590;8.854;2023-01-25T11:39:09;1.90;99.90
18225;DHT22;9237;48.590;8.854;2023-01-25T11:41:45;1.90;99.90
18225;DHT22;9237;48.590;8.854;2023-01-25T11:47:14;1.70;99.90
18225;DHT22;9237;48.590;8.854;2023-01-25T11:49:57;1.70;99.90
18225;DHT22;9237;48.590;8.854;2023-01-25T11:52:36;1.80;99.90
18225;DHT22;9237;48.590;8.854;2023-01-25T11:55:16;1.80;99.90
18225;DHT22;9237;48.590;8.854;2023-01-25T11:58:06;2.10;99.90
18225;DHT22;9237;48.590;8.854;2023-01-25T12:00:46;1.70;99.90
18225;DHT22;9237;48.590;8.854;2023-01-25T12:06:46;1.70;99.90
18225;DHT22;9237;48.590;8.854;2023-01-25T12:09:37;1.80;99.90
18225;DHT22;9237;48.590;8.854;2023-01-25T12:12:15;1.70;99.90
18225;DHT22;9237;48.590;8.854;2023-01-25T12:15:03;1.70;99.90
18225;DHT22;9237;48.590;8.854;2023-01-25T12:17:45;1.80;99.90
18225;DHT22;9237;48.590;8.854;2023-01-25T12:20:31;1.80;99.90
18225;DHT22;9237;48.590;8.854;2023-01-25T12:23:22;1.90;99.90
18225;DHT22;9237;48.590;8.854;2023-01-25T12:26:11;1.80;99.90
18225;DHT22;9237;48.590;8.854;2023-01-25T12:28:44;1.90;99.90
18225;DHT22;9237;48.590;8.854;2023-01-25T12:31:17;1.70;99.90
18225;DHT22;9237;48.590;8.854;2023-01-25T12:33:47;1.80;99.90
18225;DHT22;9237;48.590;8.854;2023-01-25T12:36:17;1.80;99.90
18225;DHT22;9237;48.590;8.854;2023-01-25T12:38:51;1.80;99.90
18225;DHT22;9237;48.590;8.854;2023-01-25T12:41:29;1.90;99.90
18225;DHT22;9237;48.590;8.854;2023-01-25T12:44:05;1.80;99.90
18225;DHT22;9237;48.590;8.854;2023-01-25T12:46:37;1.80;99.90
18225;DHT22;9237;48.590;8.854;2023-01-25T12:49:10;1.90;99.90
18225;DHT22;9237;48.590;8.854;2023-01-25T12:51:42;2.00;99.90
18225;DHT22;9237;48.590;8.854;2023-01-25T12:54:15;2.00;99.90
18225;DHT22;9237;48.590;8.854;2023-01-25T12:56:51;2.00;99.90
18225;DHT22;9237;48.590;8.854;2023-01-25T12:59:29;2.00;99.90
18225;DHT22;9237;48.590;8.854;2023-01-25T13:02:08;1.80;99.90
18225;DHT22;9237;48.590;8.854;2023-01-25T13:04:48;1.90;99.90
18225;DHT22;9237;48.590;8.854;2023-01-25T13:07:21;1.80;99.90
18225;DHT22;9237;48.590;8.854;2023-01-25T13:09:56;1.80;99.90
18225;DHT22;9237;48.590;8.854;2023-01-25T13:12:26;1.90;99.90
18225;DHT22;9237;48.590;8.854;2023-01-25T13:14:53;1.90;99.90
18225;DHT22;9237;48.590;8.854;2023-01-25T13:17:23;1.90;99.90
18225;DHT22;9237;48.590;8.854;2023-01-25T13:19:54;2.40;99.90
18225;DHT22;9237;48.590;8.854;2023-01-25T13:22:53;1.70;99.90
18225;DHT22;9237;48.590;8.854;2023-01-25T13:25:24;1.80;99.90
18225;DHT22;9237;48.590;8.854;2023-01-25T13:30:58;2.00;99.90
18225;DHT22;9237;48.590;8.854;2023-01-25T13:33:33;1.90;99.90
18225;DHT22;9237;48.590;8.854;2023-01-25T13:36:43;1.80;99.90
18225;DHT22;9237;48.590;8.854;2023-01-25T13:39:41;1.70;99.90
18225;DHT22;9237;48.590;8.854;2023-01-25T13:42:20;1.80;99.90
18225;DHT22;9237;48.590;8.854;2023-01-25T13:44:50;1.90;99.90
18225;DHT22;9237;48.590;8.854;2023-01-25T13:47:20;2.00;99.90
18225;DHT22;9237;48.590;8.854;2023-01-25T13:49:53;2.00;99.90
18225;DHT22;9237;48.590;8.854;2023-01-25T13:52:22;1.90;99.90
18225;DHT22;9237;48.590;8.854;2023-01-25T13:54:53;2.00;99.90
18225;DHT22;9237;48.590;8.854;2023-01-25T13:57:22;2.00;99.90
18225;DHT22;9237;48.590;8.854;2023-01-25T13:59:59;1.90;99.90
18225;DHT22;9237;48.590;8.854;2023-01-25T14:02:27;1.80;99.90
18225;DHT22;9237;48.590;8.854;2023-01-25T14:04:56;1.90;99.90
18225;DHT22;9237;48.590;8.854;2023-01-25T14:07:32;1.80;99.90
18225;DHT22;9237;48.590;8.854;2023-01-25T14:10:01;1.70;99.90
18225;DHT22;9237;48.590;8.854;2023-01-25T14:12:33;1.50;99.90
18225;DHT22;9237;48.590;8.854;2023-01-25T14:15:21;1.60;99.90
18225;DHT22;9237;48.590;8.854;2023-01-25T14:18:10;1.50;99.90
18225;DHT22;9237;48.590;8.854;2023-01-25T14:20:38;1.60;99.90
18225;DHT22;9237;48.590;8.854;2023-01-25T14:23:17;1.70;99.90
18225;DHT22;9237;48.590;8.854;2023-01-25T14:25:45;1.70;99.90
18225;DHT22;9237;48.590;8.854;2023-01-25T14:28:13;1.80;99.90
18225;DHT22;9237;48.590;8.854;2023-01-25T14:30:42;1.70;99.90
18225;DHT22;9237;48.590;8.854;2023-01-25T14:33:16;1.70;99.90
18225;DHT22;9237;48.590;8.854;2023-01-25T14:35:44;1.50;99.90
18225;DHT22;9237;48.590;8.854;2023-01-25T14:38:33;1.50;99.90
18225;DHT22;9237;48.590;8.854;2023-01-25T14:41:04;1.50;99.90
18225;DHT22;9237;48.590;8.854;2023-01-25T14:43:31;1.50;99.90
18225;DHT22;9237;48.590;8.854;2023-01-25T14:49:16;1.50;99.90
18225;DHT22;9237;48.590;8.854;2023-01-25T14:51:53;1.70;99.90
18225;DHT22;9237;48.590;8.854;2023-01-25T14:54:23;1.70;99.90
18225;DHT22;9237;48.590;8.854;2023-01-25T14:56:54;1.70;99.90
18225;DHT22;9237;48.590;8.854;2023-01-25T14:59:29;1.60;99.90
18225;DHT22;9237;48.590;8.854;2023-01-25T15:01:59;1.60;99.90
18225;DHT22;9237;48.590;8.854;2023-01-25T15:04:31;1.70;99.90
18225;DHT22;9237;48.590;8.854;2023-01-25T15:07:00;1.70;99.90
18225;DHT22;9237;48.590;8.854;2023-01-25T15:09:32;1.50;99.90
18225;DHT22;9237;48.590;8.854;2023-01-25T15:12:00;1.40;99.90
18225;DHT22;9237;48.590;8.854;2023-01-25T15:14:28;1.40;99.90
18225;DHT22;9237;48.590;8.854;2023-01-25T15:16:57;1.40;99.90
18225;DHT22;9237;48.590;8.854;2023-01-25T15:19:40;1.50;99.90
18225;DHT22;9237;48.590;8.854;2023-01-25T15:22:18;1.50;99.90
18225;DHT22;9237;48.590;8.854;2023-01-25T15:24:47;1.50;99.90
18225;DHT22;9237;48.590;8.854;2023-01-25T15:27:17;1.50;99.90
18225;DHT22;9237;48.590;8.854;2023-01-25T15:29:43;1.60;99.90
18225;DHT22;9237;48.590;8.854;2023-01-25T15:32:18;1.50;99.90
18225;DHT22;9237;48.590;8.854;2023-01-25T15:34:46;1.50;99.90
18225;DHT22;9237;48.590;8.854;2023-01-25T15:37:13;1.60;99.90
18225;DHT22;9237;48.590;8.854;2023-01-25T15:39:40;1.40;99.90
18225;DHT22;9237;48.590;8.854;2023-01-25T15:42:08;1.40;99.90
18225;DHT22;9237;48.590;8.854;2023-01-25T15:44:35;1.50;99.90
18225;DHT22;9237;48.590;8.854;2023-01-25T15:47:05;1.40;99.90
18225;DHT22;9237;48.590;8.854;2023-01-25T15:49:32;1.40;99.90
18225;DHT22;9237;48.590;8.854;2023-01-25T15:52:02;1.40;99.90
18225;DHT22;9237;48.590;8.854;2023-01-25T15:54:31;1.40;99.90
18225;DHT22;9237;48.590;8.854;2023-01-25T15:56:58;2.40;99.90
18225;DHT22;9237;48.590;8.854;2023-01-25T15:59:25;1.30;99.90
18225;DHT22;9237;48.590;8.854;2023-01-25T16:01:58;1.40;99.90
18225;DHT22;9237;48.590;8.854;2023-01-25T16:04:26;1.40;99.90
18225;DHT22;9237;48.590;8.854;2023-01-25T16:06:54;1.40;99.90
18225;DHT22;9237;48.590;8.854;2023-01-25T16:09:24;1.70;99.90
18225;DHT22;9237;48.590;8.854;2023-01-25T16:11:55;1.40;99.90
18225;DHT22;9237;48.590;8.854;2023-01-25T16:14:23;1.30;99.90
18225;DHT22;9237;48.590;8.854;2023-01-25T16:16:54;2.20;99.90
18225;DHT22;9237;48.590;8.854;2023-01-25T16:19:23;2.90;99.90
18225;DHT22;9237;48.590;8.854;2023-01-25T16:21:50;1.20;99.90
18225;DHT22;9237;48.590;8.854;2023-01-25T16:24:17;1.30;99.90
18225;DHT22;9237;48.590;8.854;2023-01-25T16:26:48;1.30;99.90
18225;DHT22;9237;48.590;8.854;2023-01-25T16:29:15;1.30;99.90
18225;DHT22;9237;48.590;8.854;2023-01-25T16:31:42;1.20;99.90
18225;DHT22;9237;48.590;8.854;2023-01-25T16:34:09;1.20;99.90
18225;DHT22;9237;48.590;8.854;2023-01-25T16:36:36;1.30;99.90
18225;DHT22;9237;48.590;8.854;2023-01-25T16:39:06;1.30;99.90